Time;durP1;ratioP1;P1;durP2;ratioP2;P2;SDS_P1;SDS_P2;PMS_P1;PMS_P2;Temp;Humidity;BMP_temperature;BMP_pressure;BME280_temperature;BME280_humidity;BME280_pressure;Samples;Min_cycle;Max_cycle;Signal;HPM_P1;HPM_P2
2023/01/09 00:02:13;;;;;;;0.70;0.70;;;;;;;;;;4953713;29;20182;-76
2023/01/09 00:04:39;;;;;;;0.70;0.70;;;;;;;;;;4953449;28;20295;-76
2023/01/09 00:07:05;;;;;;;0.70;0.70;;;;;;;;;;4953809;29;20586;-76
2023/01/09 00:09:31;;;;;;;0.80;0.80;;;;;;;;;;4936454;29;20218;-76
2023/01/09 00:11:57;;;;;;;0.73;0.73;;;;;;;;;;4953880;29;20178;-76
2023/01/09 00:14:23;;;;;;;0.70;0.70;;;;;;;;;;4953048;28;20257;-76
2023/01/09 00:16:49;;;;;;;0.70;0.70;;;;;;;;;;4954111;29;20190;-76
2023/01/09 00:19:15;;;;;;;0.80;0.80;;;;;;;;;;4953744;29;20723;-76
2023/01/09 00:21:41;;;;;;;0.70;0.70;;;;;;;;;;4953491;29;20210;-76
2023/01/09 00:24:07;;;;;;;0.70;0.70;;;;;;;;;;4953223;28;20784;-76
2023/01/09 00:26:34;;;;;;;0.60;0.60;;;;;;;;;;4953709;29;20184;-75
2023/01/09 00:29:00;;;;;;;0.60;0.60;;;;;;;;;;4953403;29;20214;-75
2023/01/09 00:31:26;;;;;;;0.70;0.70;;;;;;;;;;4953718;29;20269;-75
2023/01/09 00:33:58;;;;;;;0.60;0.60;;;;;;;;;;4952916;29;20612;-75
2023/01/09 00:36:24;;;;;;;0.70;0.70;;;;;;;;;;4953404;29;20174;-75
2023/01/09 00:38:51;;;;;;;0.80;0.80;;;;;;;;;;4953301;29;20628;-76
2023/01/09 00:41:20;;;;;;;0.77;0.77;;;;;;;;;;4953518;29;20236;-76
2023/01/09 00:43:48;;;;;;;0.60;0.60;;;;;;;;;;4952794;29;20640;-76
2023/01/09 00:46:14;;;;;;;0.73;0.73;;;;;;;;;;4953498;28;20202;-76
2023/01/09 00:48:41;;;;;;;0.70;0.70;;;;;;;;;;4953405;29;20253;-76
2023/01/09 00:51:07;;;;;;;0.80;0.80;;;;;;;;;;4953662;29;20261;-75
2023/01/09 00:53:34;;;;;;;0.70;0.70;;;;;;;;;;4953123;29;20182;-75
2023/01/09 00:56:01;;;;;;;0.80;0.80;;;;;;;;;;4953350;28;20202;-76
2023/01/09 00:58:27;;;;;;;0.70;0.70;;;;;;;;;;4953149;28;20191;-76
2023/01/09 01:00:53;;;;;;;0.80;0.80;;;;;;;;;;4953358;29;20332;-76
2023/01/09 01:03:19;;;;;;;0.70;0.70;;;;;;;;;;4952955;29;20543;-76
2023/01/09 01:08:30;;;;;;;0.70;0.70;;;;;;;;;;4953220;29;20221;-76
2023/01/09 01:10:56;;;;;;;0.67;0.67;;;;;;;;;;4953193;29;20178;-75
2023/01/09 01:13:22;;;;;;;0.70;0.70;;;;;;;;;;4953053;29;20225;-76
2023/01/09 01:15:48;;;;;;;0.77;0.77;;;;;;;;;;4953191;28;20194;-76
2023/01/09 01:18:14;;;;;;;0.70;0.70;;;;;;;;;;4953075;29;20285;-76
2023/01/09 01:20:41;;;;;;;0.70;0.70;;;;;;;;;;4953117;29;20662;-76
2023/01/09 01:23:07;;;;;;;0.70;0.70;;;;;;;;;;4952621;29;20190;-76
2023/01/09 01:25:35;;;;;;;0.60;0.60;;;;;;;;;;4953262;28;20198;-76
2023/01/09 01:28:01;;;;;;;0.70;0.70;;;;;;;;;;4953081;29;20277;-76
2023/01/09 01:30:27;;;;;;;0.60;0.60;;;;;;;;;;4953012;29;20202;-75
2023/01/09 01:32:53;;;;;;;0.70;0.70;;;;;;;;;;4952966;29;20178;-76
2023/01/09 01:35:19;;;;;;;0.80;0.80;;;;;;;;;;4953138;28;20293;-76
2023/01/09 01:37:45;;;;;;;0.70;0.70;;;;;;;;;;4953126;29;20640;-77
2023/01/09 01:40:11;;;;;;;0.60;0.60;;;;;;;;;;4953323;29;20210;-77
2023/01/09 01:42:44;;;;;;;0.80;0.80;;;;;;;;;;4952972;29;20269;-77
2023/01/09 01:45:13;;;;;;;0.70;0.70;;;;;;;;;;4952720;28;20201;-76
2023/01/09 01:47:45;;;;;;;0.70;0.70;;;;;;;;;;4952797;29;20206;-76
2023/01/09 01:50:37;;;;;;;0.60;0.60;;;;;;;;;;4952979;29;20206;-76
2023/01/09 01:53:06;;;;;;;0.60;0.60;;;;;;;;;;4948050;28;20247;-76
2023/01/09 01:55:37;;;;;;;0.70;0.70;;;;;;;;;;4952861;28;20199;-76
2023/01/09 01:58:04;;;;;;;0.80;0.80;;;;;;;;;;4952634;29;20561;-75
2023/01/09 02:00:32;;;;;;;0.70;0.70;;;;;;;;;;4952690;29;20612;-76
2023/01/09 02:02:59;;;;;;;0.63;0.63;;;;;;;;;;4952639;29;20201;-75
2023/01/09 02:05:25;;;;;;;0.70;0.70;;;;;;;;;;4952773;28;20659;-76
2023/01/09 02:07:51;;;;;;;0.70;0.70;;;;;;;;;;4952725;29;20315;-76
2023/01/09 02:10:17;;;;;;;0.63;0.63;;;;;;;;;;4966096;28;20561;-76
2023/01/09 02:12:43;;;;;;;0.70;0.70;;;;;;;;;;4969383;29;20185;-76
2023/01/09 02:15:10;;;;;;;0.67;0.67;;;;;;;;;;4969273;28;20194;-75
2023/01/09 02:17:55;;;;;;;0.60;0.60;;;;;;;;;;4964533;29;20585;-76
2023/01/09 02:20:31;;;;;;;0.70;0.70;;;;;;;;;;4956371;29;20174;-76
2023/01/09 02:23:12;;;;;;;0.77;0.77;;;;;;;;;;4956252;29;20190;-76
2023/01/09 02:25:38;;;;;;;0.70;0.70;;;;;;;;;;4956649;28;20341;-75
2023/01/09 02:28:23;;;;;;;0.80;0.80;;;;;;;;;;4955850;29;20742;-76
2023/01/09 02:31:12;;;;;;;0.70;0.70;;;;;;;;;;4955851;29;20207;-76
2023/01/09 02:33:53;;;;;;;0.70;0.70;;;;;;;;;;4955486;29;20206;-76
2023/01/09 02:36:22;;;;;;;0.80;0.80;;;;;;;;;;4955508;28;20549;-76
2023/01/09 02:38:56;;;;;;;0.80;0.80;;;;;;;;;;4955543;29;20569;-75
2023/01/09 02:41:48;;;;;;;0.70;0.70;;;;;;;;;;4955418;29;20179;-75
2023/01/09 02:44:14;;;;;;;0.70;0.70;;;;;;;;;;4950904;28;20182;-75
2023/01/09 02:46:40;;;;;;;0.70;0.70;;;;;;;;;;4955559;29;20202;-76
2023/01/09 02:49:07;;;;;;;0.70;0.70;;;;;;;;;;4955466;29;20220;-76
2023/01/09 02:51:52;;;;;;;0.80;0.80;;;;;;;;;;4955488;29;20262;-76
2023/01/09 02:54:27;;;;;;;0.73;0.73;;;;;;;;;;4954943;28;20203;-76
2023/01/09 02:56:59;;;;;;;0.90;0.90;;;;;;;;;;4954994;29;20182;-76
2023/01/09 02:59:31;;;;;;;0.70;0.70;;;;;;;;;;4955261;29;20170;-76
2023/01/09 03:02:12;;;;;;;0.80;0.80;;;;;;;;;;4955382;29;20179;-76
2023/01/09 03:04:50;;;;;;;0.77;0.77;;;;;;;;;;4954728;28;20577;-76
2023/01/09 03:07:19;;;;;;;0.70;0.70;;;;;;;;;;4955129;29;20178;-76
2023/01/09 03:09:47;;;;;;;0.70;0.70;;;;;;;;;;4954955;29;20648;-76
2023/01/09 03:12:19;;;;;;;0.63;0.63;;;;;;;;;;4954882;29;20186;-76
2023/01/09 03:14:49;;;;;;;0.70;0.70;;;;;;;;;;4954759;28;20190;-75
2023/01/09 03:17:18;;;;;;;0.90;0.90;;;;;;;;;;4955782;29;20182;-77
2023/01/09 03:19:45;;;;;;;0.80;0.80;;;;;;;;;;4955633;29;20178;-77
2023/01/09 03:22:11;;;;;;;0.90;0.90;;;;;;;;;;4955324;28;20719;-77
2023/01/09 03:24:37;;;;;;;0.70;0.70;;;;;;;;;;4955921;28;20198;-77
2023/01/09 03:27:05;;;;;;;0.80;0.80;;;;;;;;;;4955515;29;20278;-76
2023/01/09 03:29:31;;;;;;;0.80;0.80;;;;;;;;;;4955548;29;20309;-77
2023/01/09 03:31:57;;;;;;;0.70;0.70;;;;;;;;;;4955162;29;20266;-76
2023/01/09 03:34:23;;;;;;;0.70;0.70;;;;;;;;;;4954175;28;20798;-76
2023/01/09 03:36:48;;;;;;;0.70;0.70;;;;;;;;;;4954796;29;20175;-77
2023/01/09 03:39:14;;;;;;;0.63;0.63;;;;;;;;;;4954800;29;20182;-76
2023/01/09 03:41:40;;;;;;;0.70;0.70;;;;;;;;;;4954635;29;20636;-76
2023/01/09 03:44:06;;;;;;;0.70;0.70;;;;;;;;;;4954484;28;20195;-76
2023/01/09 03:46:32;;;;;;;0.80;0.80;;;;;;;;;;4954576;29;20181;-76
2023/01/09 03:48:58;;;;;;;0.63;0.63;;;;;;;;;;4954502;29;20222;-75
2023/01/09 03:51:24;;;;;;;0.77;0.77;;;;;;;;;;4954671;29;20178;-76
2023/01/09 03:53:50;;;;;;;0.63;0.63;;;;;;;;;;4954268;29;20883;-76
2023/01/09 03:56:16;;;;;;;0.70;0.70;;;;;;;;;;4954276;28;20242;-76
2023/01/09 03:58:42;;;;;;;0.70;0.70;;;;;;;;;;4954714;29;20183;-75
2023/01/09 04:01:11;;;;;;;0.70;0.70;;;;;;;;;;4954584;29;20179;-76
2023/01/09 04:06:14;;;;;;;0.70;0.70;;;;;;;;;;4934930;29;20235;-76
2023/01/09 04:08:40;;;;;;;0.70;0.70;;;;;;;;;;4934977;29;20222;-76
2023/01/09 04:11:06;;;;;;;0.63;0.63;;;;;;;;;;4934990;29;20242;-76
2023/01/09 04:13:32;;;;;;;0.70;0.70;;;;;;;;;;4934797;29;20183;-77
2023/01/09 04:15:58;;;;;;;0.70;0.70;;;;;;;;;;4935039;29;20198;-75
2023/01/09 04:18:24;;;;;;;0.70;0.70;;;;;;;;;;4934936;29;20671;-76
2023/01/09 04:20:50;;;;;;;0.80;0.80;;;;;;;;;;4936743;29;20175;-74
2023/01/09 04:23:16;;;;;;;0.70;0.70;;;;;;;;;;4935648;29;20184;-74
2023/01/09 04:25:42;;;;;;;0.63;0.63;;;;;;;;;;4934793;29;20225;-74
2023/01/09 04:28:08;;;;;;;0.80;0.80;;;;;;;;;;4934621;29;20307;-74
2023/01/09 04:30:34;;;;;;;0.70;0.70;;;;;;;;;;4934704;29;20186;-74
2023/01/09 04:33:00;;;;;;;0.77;0.77;;;;;;;;;;4933714;29;20227;-74
2023/01/09 04:35:26;;;;;;;0.70;0.70;;;;;;;;;;4934638;29;20710;-75
2023/01/09 04:37:52;;;;;;;0.80;0.80;;;;;;;;;;4934434;29;20211;-74
2023/01/09 04:40:18;;;;;;;0.60;0.60;;;;;;;;;;4934627;29;20206;-74
2023/01/09 04:42:45;;;;;;;0.77;0.77;;;;;;;;;;4934128;29;20246;-74
2023/01/09 04:45:13;;;;;;;0.70;0.70;;;;;;;;;;4934477;29;20209;-74
2023/01/09 04:47:39;;;;;;;0.70;0.70;;;;;;;;;;4934569;29;20183;-74
2023/01/09 04:50:05;;;;;;;0.80;0.80;;;;;;;;;;4934378;29;20254;-74
2023/01/09 04:52:31;;;;;;;0.70;0.70;;;;;;;;;;4933894;29;20206;-74
2023/01/09 04:54:58;;;;;;;0.60;0.60;;;;;;;;;;4934221;29;20314;-74
2023/01/09 04:57:24;;;;;;;0.77;0.77;;;;;;;;;;4934262;29;20212;-74
2023/01/09 04:59:50;;;;;;;0.80;0.80;;;;;;;;;;4934298;29;20191;-74
2023/01/09 05:02:16;;;;;;;0.70;0.70;;;;;;;;;;4934252;29;20185;-74
2023/01/09 05:04:42;;;;;;;0.70;0.70;;;;;;;;;;4933441;29;20249;-74
2023/01/09 05:07:08;;;;;;;0.80;0.80;;;;;;;;;;4934009;29;20183;-73
2023/01/09 05:09:34;;;;;;;0.70;0.70;;;;;;;;;;4934133;29;20282;-74
2023/01/09 05:12:00;;;;;;;0.70;0.70;;;;;;;;;;4934062;29;20678;-74
2023/01/09 05:14:26;;;;;;;0.70;0.70;;;;;;;;;;4933577;29;20202;-74
2023/01/09 05:16:52;;;;;;;0.80;0.80;;;;;;;;;;4934425;29;20607;-74
2023/01/09 05:19:18;;;;;;;0.70;0.70;;;;;;;;;;4933999;29;20292;-74
2023/01/09 05:21:44;;;;;;;0.80;0.80;;;;;;;;;;4933915;29;20215;-74
2023/01/09 05:24:10;;;;;;;0.70;0.70;;;;;;;;;;4933633;29;20202;-74
2023/01/09 05:26:36;;;;;;;0.80;0.80;;;;;;;;;;4934127;29;20614;-75
2023/01/09 05:29:02;;;;;;;0.70;0.70;;;;;;;;;;4934254;29;20235;-75
2023/01/09 05:31:28;;;;;;;0.80;0.80;;;;;;;;;;4933863;29;20186;-74
2023/01/09 05:33:57;;;;;;;0.70;0.70;;;;;;;;;;4933389;29;20171;-74
2023/01/09 05:36:22;;;;;;;0.73;0.73;;;;;;;;;;4933724;29;20216;-75
2023/01/09 05:38:48;;;;;;;0.70;0.70;;;;;;;;;;4934048;29;20203;-74
2023/01/09 05:41:14;;;;;;;0.73;0.73;;;;;;;;;;4934146;29;20247;-75
2023/01/09 05:43:40;;;;;;;0.70;0.70;;;;;;;;;;4933684;29;20183;-74
2023/01/09 05:46:06;;;;;;;0.70;0.70;;;;;;;;;;4937511;29;20286;-74
2023/01/09 05:48:32;;;;;;;0.77;0.77;;;;;;;;;;4937403;29;20306;-73
2023/01/09 05:50:58;;;;;;;0.70;0.70;;;;;;;;;;4937278;29;20214;-74
2023/01/09 05:53:24;;;;;;;0.70;0.70;;;;;;;;;;4936830;29;20175;-74
2023/01/09 05:55:50;;;;;;;0.70;0.70;;;;;;;;;;4937533;29;20371;-74
2023/01/09 05:58:16;;;;;;;0.80;0.80;;;;;;;;;;4937267;29;20190;-74
2023/01/09 06:00:42;;;;;;;0.80;0.80;;;;;;;;;;4937243;29;20179;-74
2023/01/09 06:03:08;;;;;;;0.80;0.80;;;;;;;;;;4936766;29;20186;-74
2023/01/09 06:05:34;;;;;;;0.70;0.70;;;;;;;;;;4936876;29;20719;-74
2023/01/09 06:08:00;;;;;;;0.70;0.70;;;;;;;;;;4937153;29;20272;-74
2023/01/09 06:10:26;;;;;;;0.70;0.70;;;;;;;;;;4937337;29;20183;-74
2023/01/09 06:12:53;;;;;;;0.80;0.80;;;;;;;;;;4936595;29;20218;-74
2023/01/09 06:15:19;;;;;;;0.60;0.60;;;;;;;;;;4936866;29;20549;-73
2023/01/09 06:17:45;;;;;;;0.80;0.80;;;;;;;;;;4937011;29;20190;-74
2023/01/09 06:20:11;;;;;;;0.90;0.90;;;;;;;;;;4936611;29;20630;-74
2023/01/09 06:22:37;;;;;;;0.80;0.80;;;;;;;;;;4936392;29;20690;-74
2023/01/09 06:25:04;;;;;;;0.70;0.70;;;;;;;;;;4939243;29;20231;-74
2023/01/09 06:27:30;;;;;;;0.70;0.70;;;;;;;;;;4936714;29;20194;-74
2023/01/09 06:29:55;;;;;;;0.70;0.70;;;;;;;;;;4936628;29;20187;-74
2023/01/09 06:32:21;;;;;;;0.70;0.70;;;;;;;;;;4936071;29;20187;-74
2023/01/09 06:34:47;;;;;;;0.70;0.70;;;;;;;;;;4935466;29;20734;-74
2023/01/09 06:37:13;;;;;;;0.80;0.80;;;;;;;;;;4936754;29;20214;-75
2023/01/09 06:39:39;;;;;;;0.70;0.70;;;;;;;;;;4936463;29;20179;-74
2023/01/09 06:42:05;;;;;;;0.80;0.80;;;;;;;;;;4936214;29;20258;-75
2023/01/09 06:44:32;;;;;;;0.70;0.70;;;;;;;;;;4934997;29;20611;-74
2023/01/09 06:46:58;;;;;;;0.70;0.70;;;;;;;;;;4936980;29;20183;-75
2023/01/09 06:49:24;;;;;;;0.73;0.73;;;;;;;;;;4942455;29;20211;-75
2023/01/09 06:51:50;;;;;;;0.70;0.70;;;;;;;;;;4935740;29;20172;-76
2023/01/09 06:54:19;;;;;;;0.80;0.80;;;;;;;;;;4942103;28;20609;-75
2023/01/09 06:56:45;;;;;;;0.70;0.70;;;;;;;;;;4954586;28;20316;-75
2023/01/09 06:59:11;;;;;;;0.80;0.80;;;;;;;;;;4946810;29;20182;-74
2023/01/09 07:01:40;;;;;;;0.80;0.80;;;;;;;;;;4935278;29;20590;-74
2023/01/09 07:04:07;;;;;;;0.80;0.80;;;;;;;;;;4935285;29;20712;-75
2023/01/09 07:06:33;;;;;;;0.80;0.80;;;;;;;;;;4935950;29;20189;-74
2023/01/09 07:08:59;;;;;;;0.70;0.70;;;;;;;;;;4933207;29;20684;-74
2023/01/09 07:11:25;;;;;;;0.70;0.70;;;;;;;;;;4935904;29;20182;-75
2023/01/09 07:13:51;;;;;;;0.80;0.80;;;;;;;;;;4935336;29;20175;-74
2023/01/09 07:16:17;;;;;;;0.70;0.70;;;;;;;;;;4935191;29;20207;-74
2023/01/09 07:18:43;;;;;;;0.70;0.70;;;;;;;;;;4935382;29;20326;-74
2023/01/09 07:21:09;;;;;;;0.70;0.70;;;;;;;;;;4935217;29;20182;-74
2023/01/09 07:23:35;;;;;;;0.87;0.87;;;;;;;;;;4934409;29;20191;-74
2023/01/09 07:26:01;;;;;;;0.80;0.80;;;;;;;;;;4935094;29;20289;-75
2023/01/09 07:28:27;;;;;;;0.77;0.77;;;;;;;;;;4934939;29;20664;-74
2023/01/09 07:30:53;;;;;;;0.77;0.77;;;;;;;;;;4934997;29;20267;-74
2023/01/09 07:33:19;;;;;;;0.70;0.70;;;;;;;;;;4934875;29;20187;-74
2023/01/09 07:35:45;;;;;;;0.80;0.80;;;;;;;;;;4935338;29;20214;-74
2023/01/09 07:38:11;;;;;;;0.60;0.60;;;;;;;;;;4935429;29;20426;-75
2023/01/09 07:40:38;;;;;;;0.80;0.80;;;;;;;;;;4935294;29;20621;-75
2023/01/09 07:43:04;;;;;;;0.70;0.70;;;;;;;;;;4934472;29;20585;-75
2023/01/09 07:45:30;;;;;;;0.80;0.80;;;;;;;;;;4935158;29;20199;-76
2023/01/09 07:47:56;;;;;;;0.73;0.73;;;;;;;;;;4935105;29;20215;-76
2023/01/09 07:50:22;;;;;;;0.70;0.70;;;;;;;;;;4935085;29;20704;-77
2023/01/09 07:52:47;;;;;;;0.70;0.70;;;;;;;;;;4934574;29;20283;-76
2023/01/09 07:55:14;;;;;;;0.77;0.77;;;;;;;;;;4935083;29;20199;-77
2023/01/09 07:57:39;;;;;;;0.70;0.70;;;;;;;;;;4934977;29;20207;-76
2023/01/09 08:00:08;;;;;;;0.70;0.70;;;;;;;;;;4935035;29;20258;-77
2023/01/09 08:02:34;;;;;;;0.70;0.70;;;;;;;;;;4934729;29;20191;-76
2023/01/09 08:05:00;;;;;;;0.60;0.60;;;;;;;;;;4934529;29;20222;-76
2023/01/09 08:07:26;;;;;;;0.80;0.80;;;;;;;;;;4934219;29;20247;-76
2023/01/09 08:09:52;;;;;;;0.70;0.70;;;;;;;;;;4934554;29;20226;-77
2023/01/09 08:12:18;;;;;;;0.80;0.80;;;;;;;;;;4935090;29;20178;-80
2023/01/09 08:14:44;;;;;;;0.80;0.80;;;;;;;;;;4934220;29;20199;-77
2023/01/09 08:17:10;;;;;;;0.63;0.63;;;;;;;;;;4934704;29;20190;-76
2023/01/09 08:19:36;;;;;;;0.60;0.60;;;;;;;;;;4934792;29;20183;-77
2023/01/09 08:22:02;;;;;;;0.70;0.70;;;;;;;;;;4934628;29;20257;-77
2023/01/09 08:24:29;;;;;;;0.70;0.70;;;;;;;;;;4934163;29;20198;-77
2023/01/09 08:26:55;;;;;;;0.70;0.70;;;;;;;;;;4935130;29;20213;-77
2023/01/09 08:29:21;;;;;;;0.60;0.60;;;;;;;;;;4934781;29;20219;-77
2023/01/09 08:31:47;;;;;;;0.70;0.70;;;;;;;;;;4934581;29;20179;-77
2023/01/09 08:34:13;;;;;;;0.80;0.80;;;;;;;;;;4934182;29;20206;-77
2023/01/09 08:36:39;;;;;;;0.70;0.70;;;;;;;;;;4934701;29;20542;-76
2023/01/09 08:39:05;;;;;;;0.80;0.80;;;;;;;;;;4935025;29;20183;-79
2023/01/09 08:47:06;;;;;;;0.60;0.60;;;;;;;;;;4944955;29;20190;-74
2023/01/09 08:49:33;;;;;;;0.70;0.70;;;;;;;;;;4942752;29;20222;-75
2023/01/09 08:51:59;;;;;;;0.60;0.60;;;;;;;;;;4935156;29;20194;-74
2023/01/09 08:54:25;;;;;;;0.60;0.60;;;;;;;;;;4934793;29;20207;-74
2023/01/09 08:56:51;;;;;;;0.60;0.60;;;;;;;;;;4925451;29;20286;-74
2023/01/09 08:59:17;;;;;;;0.40;0.40;;;;;;;;;;4915976;29;20194;-74
2023/01/09 09:01:43;;;;;;;0.40;0.40;;;;;;;;;;4915935;29;20674;-74
2023/01/09 09:04:09;;;;;;;0.47;0.47;;;;;;;;;;4913629;29;20186;-73
2023/01/09 09:06:35;;;;;;;0.47;0.47;;;;;;;;;;4914192;29;20192;-74
2023/01/09 09:09:02;;;;;;;0.40;0.40;;;;;;;;;;4918845;29;20223;-73
2023/01/09 09:11:28;;;;;;;0.50;0.50;;;;;;;;;;4916732;29;20187;-74
2023/01/09 09:13:54;;;;;;;0.50;0.50;;;;;;;;;;4913792;29;20187;-73
2023/01/09 09:16:20;;;;;;;0.50;0.50;;;;;;;;;;4914020;29;20204;-73
2023/01/09 09:18:46;;;;;;;0.50;0.50;;;;;;;;;;4914332;29;20259;-78
2023/01/09 09:21:12;;;;;;;0.40;0.40;;;;;;;;;;4918056;29;20275;-73
2023/01/09 09:23:38;;;;;;;0.30;0.30;;;;;;;;;;4917718;29;20645;-73
2023/01/09 09:26:04;;;;;;;0.40;0.40;;;;;;;;;;4921453;29;20219;-73
2023/01/09 09:28:30;;;;;;;0.40;0.40;;;;;;;;;;4917771;29;20586;-74
2023/01/09 09:30:56;;;;;;;0.40;0.40;;;;;;;;;;4918041;29;20183;-74
2023/01/09 09:33:22;;;;;;;0.40;0.40;;;;;;;;;;4920235;29;20621;-74
2023/01/09 09:35:48;;;;;;;0.30;0.30;;;;;;;;;;4917744;29;21024;-74
2023/01/09 09:38:14;;;;;;;0.30;0.30;;;;;;;;;;4917601;29;20187;-73
2023/01/09 09:40:43;;;;;;;0.33;0.33;;;;;;;;;;4917580;29;20270;-74
2023/01/09 09:46:04;;;;;;;0.47;0.47;;;;;;;;;;4917668;29;20206;-76
2023/01/09 09:48:47;;;;;;;0.30;0.30;;;;;;;;;;4917309;29;20212;-73
2023/01/09 09:51:32;;;;;;;0.40;0.40;;;;;;;;;;4917786;29;20220;-74
2023/01/09 09:54:03;;;;;;;0.30;0.30;;;;;;;;;;4918286;29;20187;-73
2023/01/09 09:56:31;;;;;;;0.40;0.40;;;;;;;;;;4937112;29;20181;-72
2023/01/09 09:59:03;;;;;;;0.40;0.40;;;;;;;;;;4936777;29;20176;-76
2023/01/09 10:01:36;;;;;;;0.40;0.40;;;;;;;;;;4936916;29;20539;-73
2023/01/09 10:04:04;;;;;;;0.40;0.40;;;;;;;;;;4936335;29;20202;-74
2023/01/09 10:06:49;;;;;;;0.37;0.37;;;;;;;;;;4936987;29;20225;-74
2023/01/09 10:09:20;;;;;;;0.40;0.40;;;;;;;;;;4936462;29;20286;-74
2023/01/09 10:11:53;;;;;;;0.40;0.40;;;;;;;;;;4936887;29;20218;-74
2023/01/09 10:14:19;;;;;;;0.40;0.40;;;;;;;;;;4922507;29;20208;-74
2023/01/09 10:17:02;;;;;;;0.47;0.47;;;;;;;;;;4936530;29;20183;-74
2023/01/09 10:20:07;;;;;;;0.50;0.50;;;;;;;;;;4939490;29;20221;-74
2023/01/09 10:22:40;;;;;;;0.43;0.43;;;;;;;;;;4895764;29;20294;-73
2023/01/09 10:25:12;;;;;;;0.50;0.50;;;;;;;;;;4896420;29;20208;-72
2023/01/09 10:27:50;;;;;;;0.40;0.40;;;;;;;;;;4914310;29;20196;-74
2023/01/09 10:30:26;;;;;;;0.43;0.43;;;;;;;;;;4941659;29;20195;-73
2023/01/09 10:33:06;;;;;;;0.60;0.60;;;;;;;;;;4935442;29;20851;-73
2023/01/09 10:35:57;;;;;;;0.40;0.40;;;;;;;;;;4936170;29;20424;-73
2023/01/09 10:38:26;;;;;;;0.50;0.50;;;;;;;;;;4936355;29;20629;-72
2023/01/09 10:40:59;;;;;;;0.50;0.50;;;;;;;;;;4936395;29;20213;-73
2023/01/09 10:43:38;;;;;;;0.50;0.50;;;;;;;;;;4935878;29;20190;-72
2023/01/09 10:46:07;;;;;;;0.50;0.50;;;;;;;;;;4936139;29;20230;-72
2023/01/09 10:48:35;;;;;;;0.50;0.50;;;;;;;;;;4920835;29;20247;-72
2023/01/09 10:51:01;;;;;;;0.53;0.53;;;;;;;;;;4924394;29;20195;-73
2023/01/09 10:53:48;;;;;;;0.60;0.60;;;;;;;;;;4917374;29;20615;-73
2023/01/09 10:56:18;;;;;;;0.70;0.70;;;;;;;;;;4916578;29;20204;-73
2023/01/09 10:58:44;;;;;;;0.60;0.60;;;;;;;;;;4919681;29;20191;-73
2023/01/09 11:01:10;;;;;;;0.63;0.63;;;;;;;;;;4918767;29;20184;-73
2023/01/09 11:03:37;;;;;;;0.70;0.70;;;;;;;;;;4916023;29;20184;-73
2023/01/09 11:06:04;;;;;;;0.70;0.70;;;;;;;;;;4916285;29;20251;-73
2023/01/09 11:08:33;;;;;;;0.73;0.73;;;;;;;;;;4932509;29;20222;-73
2023/01/09 11:11:00;;;;;;;0.70;0.70;;;;;;;;;;4935661;29;20183;-76
2023/01/09 11:13:28;;;;;;;0.70;0.70;;;;;;;;;;4934821;29;20191;-73
2023/01/09 11:16:08;;;;;;;0.60;0.60;;;;;;;;;;4933329;29;20689;-73
2023/01/09 11:18:35;;;;;;;0.80;0.80;;;;;;;;;;4934777;29;20527;-73
2023/01/09 11:21:12;;;;;;;0.60;0.60;;;;;;;;;;4935297;29;20478;-73
2023/01/09 11:23:38;;;;;;;0.70;0.70;;;;;;;;;;4934427;29;20291;-73
2023/01/09 11:26:04;;;;;;;0.70;0.70;;;;;;;;;;4934283;29;20719;-74
2023/01/09 11:28:30;;;;;;;0.60;0.60;;;;;;;;;;4935167;29;20306;-73
2023/01/09 11:30:58;;;;;;;0.70;0.70;;;;;;;;;;4935481;29;20208;-73
2023/01/09 11:33:26;;;;;;;0.70;0.70;;;;;;;;;;4934068;29;20274;-74
2023/01/09 11:35:57;;;;;;;0.70;0.70;;;;;;;;;;4934133;29;20199;-74
2023/01/09 11:38:22;;;;;;;0.70;0.70;;;;;;;;;;4935062;29;20187;-75
2023/01/09 11:40:50;;;;;;;0.70;0.70;;;;;;;;;;4935051;29;20202;-74
2023/01/09 11:43:16;;;;;;;0.70;0.70;;;;;;;;;;4934442;29;20183;-74
2023/01/09 11:45:46;;;;;;;0.60;0.60;;;;;;;;;;4934445;29;20213;-74
2023/01/09 11:48:16;;;;;;;0.60;0.60;;;;;;;;;;4927357;29;20219;-74
2023/01/09 11:50:52;;;;;;;0.50;0.50;;;;;;;;;;4915884;29;20283;-74
2023/01/09 11:53:19;;;;;;;0.60;0.60;;;;;;;;;;4928056;29;20660;-74
2023/01/09 11:55:46;;;;;;;0.50;0.50;;;;;;;;;;4934826;29;20207;-74
2023/01/09 11:58:20;;;;;;;0.70;0.70;;;;;;;;;;4934759;29;20199;-74
2023/01/09 12:01:03;;;;;;;0.50;0.50;;;;;;;;;;4934344;29;20203;-74
2023/01/09 12:03:29;;;;;;;0.50;0.50;;;;;;;;;;4934088;29;20206;-73
2023/01/09 12:05:55;;;;;;;0.50;0.50;;;;;;;;;;4933656;29;20708;-74
2023/01/09 12:08:21;;;;;;;0.70;0.70;;;;;;;;;;4934285;29;20244;-74
2023/01/09 12:11:10;;;;;;;0.70;0.70;;;;;;;;;;4932589;29;20554;-73
2023/01/09 12:13:42;;;;;;;0.60;0.60;;;;;;;;;;4927890;29;20242;-74
2023/01/09 12:16:08;;;;;;;0.80;0.80;;;;;;;;;;4932950;29;20330;-74
2023/01/09 12:18:53;;;;;;;0.70;0.70;;;;;;;;;;4924779;29;20267;-73
2023/01/09 12:21:19;;;;;;;0.67;0.67;;;;;;;;;;4915022;29;20172;-73
2023/01/09 12:23:47;;;;;;;0.70;0.70;;;;;;;;;;4914120;29;20195;-75
2023/01/09 12:26:19;;;;;;;0.70;0.70;;;;;;;;;;4922233;29;20211;-74
2023/01/09 12:29:04;;;;;;;0.53;0.53;;;;;;;;;;4931598;29;20207;-74
2023/01/09 12:31:40;;;;;;;0.60;0.60;;;;;;;;;;4934997;29;20182;-74
2023/01/09 12:34:10;;;;;;;0.60;0.60;;;;;;;;;;4939244;29;20195;-74
2023/01/09 12:36:45;;;;;;;0.70;0.70;;;;;;;;;;4940170;29;20189;-74
2023/01/09 12:39:27;;;;;;;0.73;0.73;;;;;;;;;;4953459;29;20253;-74
2023/01/09 12:42:00;;;;;;;0.70;0.70;;;;;;;;;;4932873;29;20183;-74
2023/01/09 12:44:50;;;;;;;0.70;0.70;;;;;;;;;;4931213;29;20624;-76
2023/01/09 12:47:16;;;;;;;0.70;0.70;;;;;;;;;;4934245;29;20230;-74
2023/01/09 12:49:49;;;;;;;0.80;0.80;;;;;;;;;;4934242;29;20301;-74
2023/01/09 12:52:27;;;;;;;0.73;0.73;;;;;;;;;;4934336;29;20175;-74
2023/01/09 12:55:00;;;;;;;0.70;0.70;;;;;;;;;;4933364;29;20568;-75
2023/01/09 12:57:44;;;;;;;0.80;0.80;;;;;;;;;;4934240;29;20190;-74
2023/01/09 13:00:17;;;;;;;0.70;0.70;;;;;;;;;;4934076;29;20186;-75
2023/01/09 13:02:53;;;;;;;0.70;0.70;;;;;;;;;;4933767;29;20604;-74
2023/01/09 13:05:42;;;;;;;0.70;0.70;;;;;;;;;;4934098;29;20218;-75
2023/01/09 13:08:12;;;;;;;0.70;0.70;;;;;;;;;;4934015;29;20202;-74
2023/01/09 13:10:41;;;;;;;0.80;0.80;;;;;;;;;;4934050;29;20183;-75
2023/01/09 13:13:28;;;;;;;0.80;0.80;;;;;;;;;;4933678;29;20254;-75
2023/01/09 13:15:59;;;;;;;0.70;0.70;;;;;;;;;;4913828;29;20699;-75
2023/01/09 13:18:31;;;;;;;0.70;0.70;;;;;;;;;;4934016;29;20186;-75
2023/01/09 13:20:57;;;;;;;0.70;0.70;;;;;;;;;;4933799;29;20219;-76
2023/01/09 13:23:29;;;;;;;0.80;0.80;;;;;;;;;;4933660;29;20189;-75
2023/01/09 13:25:56;;;;;;;0.70;0.70;;;;;;;;;;4934014;29;20210;-75
2023/01/09 13:28:46;;;;;;;0.80;0.80;;;;;;;;;;4933390;29;20290;-75
2023/01/09 13:31:24;;;;;;;0.70;0.70;;;;;;;;;;4932025;29;20191;-74
2023/01/09 13:33:55;;;;;;;0.60;0.60;;;;;;;;;;4932182;29;20560;-74
2023/01/09 13:36:29;;;;;;;0.70;0.70;;;;;;;;;;4940865;29;20348;-74
2023/01/09 13:38:56;;;;;;;0.70;0.70;;;;;;;;;;4942435;29;20175;-74
2023/01/09 13:44:27;;;;;;;0.70;0.70;;;;;;;;;;4930611;29;20186;-74
2023/01/09 13:46:57;;;;;;;0.63;0.63;;;;;;;;;;4931882;29;20676;-75
2023/01/09 13:49:32;;;;;;;0.70;0.70;;;;;;;;;;4933567;29;20223;-74
2023/01/09 13:52:00;;;;;;;0.70;0.70;;;;;;;;;;4933697;29;20182;-75
2023/01/09 13:54:44;;;;;;;0.73;0.73;;;;;;;;;;4932997;29;20684;-74
2023/01/09 13:57:19;;;;;;;0.70;0.70;;;;;;;;;;4933850;29;20211;-74
2023/01/09 13:59:49;;;;;;;0.80;0.80;;;;;;;;;;4931843;29;20183;-73
2023/01/09 14:02:33;;;;;;;0.80;0.80;;;;;;;;;;4931965;29;20183;-74
2023/01/09 14:04:59;;;;;;;0.70;0.70;;;;;;;;;;4932988;29;20221;-73
2023/01/09 14:07:26;;;;;;;0.60;0.60;;;;;;;;;;4935052;29;20644;-73
2023/01/09 14:10:00;;;;;;;0.70;0.70;;;;;;;;;;4921742;29;20615;-74
2023/01/09 14:12:27;;;;;;;0.70;0.70;;;;;;;;;;4934428;29;20516;-74
2023/01/09 14:14:54;;;;;;;0.70;0.70;;;;;;;;;;4936614;29;20252;-74
2023/01/09 14:17:32;;;;;;;0.70;0.70;;;;;;;;;;4936763;29;20198;-74
2023/01/09 14:19:59;;;;;;;0.70;0.70;;;;;;;;;;4936626;29;20183;-75
2023/01/09 14:22:27;;;;;;;0.80;0.80;;;;;;;;;;4936504;29;20175;-73
2023/01/09 14:24:55;;;;;;;0.60;0.60;;;;;;;;;;4918905;29;20777;-73
2023/01/09 14:27:39;;;;;;;0.60;0.60;;;;;;;;;;4936489;29;20187;-73
2023/01/09 14:30:23;;;;;;;0.80;0.80;;;;;;;;;;4934855;29;20680;-73
2023/01/09 14:33:08;;;;;;;0.60;0.60;;;;;;;;;;4918551;29;20194;-73
2023/01/09 14:35:45;;;;;;;0.80;0.80;;;;;;;;;;4918912;29;20545;-73
2023/01/09 14:38:16;;;;;;;0.70;0.70;;;;;;;;;;4917032;29;20255;-72
2023/01/09 14:40:52;;;;;;;0.80;0.80;;;;;;;;;;4916781;29;20184;-73
2023/01/09 14:43:38;;;;;;;0.80;0.80;;;;;;;;;;4927206;29;20253;-73
2023/01/09 14:46:09;;;;;;;0.80;0.80;;;;;;;;;;4921310;29;20207;-74
2023/01/09 14:48:38;;;;;;;0.63;0.63;;;;;;;;;;4916634;29;20216;-74
2023/01/09 14:51:07;;;;;;;0.70;0.70;;;;;;;;;;4924179;29;20194;-73
2023/01/09 14:53:36;;;;;;;0.80;0.80;;;;;;;;;;4935347;29;20191;-73
2023/01/09 14:56:05;;;;;;;0.80;0.80;;;;;;;;;;4935659;29;20214;-73
2023/01/09 14:58:35;;;;;;;0.70;0.70;;;;;;;;;;4935923;29;20274;-74
2023/01/09 15:01:01;;;;;;;0.60;0.60;;;;;;;;;;4935809;29;20195;-74
2023/01/09 15:03:50;;;;;;;0.80;0.80;;;;;;;;;;4936482;29;20179;-75
2023/01/09 15:06:18;;;;;;;0.60;0.60;;;;;;;;;;4933913;29;20195;-75
2023/01/09 15:08:45;;;;;;;0.70;0.70;;;;;;;;;;4939462;29;20270;-75
2023/01/09 15:11:12;;;;;;;0.70;0.70;;;;;;;;;;4936041;29;20607;-75
2023/01/09 15:13:43;;;;;;;0.70;0.70;;;;;;;;;;4935250;29;20180;-75